sensor_id;sensor_type;location;lat;lon;timestamp;temperature;humidity
8780;DHT22;62328;51.19929245;4.42130175;2022-07-22T00:02:00;18.30;99.90
8780;DHT22;62328;51.19929245;4.42130175;2022-07-22T00:04:26;18.30;99.90
8780;DHT22;62328;51.19929245;4.42130175;2022-07-22T00:06:53;18.30;99.90
8780;DHT22;62328;51.19929245;4.42130175;2022-07-22T00:09:20;18.30;99.90
8780;DHT22;62328;51.19929245;4.42130175;2022-07-22T00:11:48;18.20;99.90
8780;DHT22;62328;51.19929245;4.42130175;2022-07-22T00:14:15;18.20;99.90
8780;DHT22;62328;51.19929245;4.42130175;2022-07-22T00:16:42;18.20;99.90
8780;DHT22;62328;51.19929245;4.42130175;2022-07-22T00:19:09;18.20;99.90
8780;DHT22;62328;51.19929245;4.42130175;2022-07-22T00:21:36;18.20;99.90
8780;DHT22;62328;51.19929245;4.42130175;2022-07-22T00:24:04;18.20;99.90
8780;DHT22;62328;51.19929245;4.42130175;2022-07-22T00:26:31;18.10;99.90
8780;DHT22;62328;51.19929245;4.42130175;2022-07-22T00:28:59;18.10;99.90
8780;DHT22;62328;51.19929245;4.42130175;2022-07-22T00:31:26;18.10;99.90
8780;DHT22;62328;51.19929245;4.42130175;2022-07-22T00:33:53;18.10;99.90
8780;DHT22;62328;51.19929245;4.42130175;2022-07-22T00:36:19;18.10;99.90
8780;DHT22;62328;51.19929245;4.42130175;2022-07-22T00:38:46;18.10;99.90
8780;DHT22;62328;51.19929245;4.42130175;2022-07-22T00:41:13;18.10;99.90
8780;DHT22;62328;51.19929245;4.42130175;2022-07-22T00:43:54;18.10;99.90
8780;DHT22;62328;51.19929245;4.42130175;2022-07-22T00:46:23;18.10;99.90
8780;DHT22;62328;51.19929245;4.42130175;2022-07-22T00:48:50;18.00;99.90
8780;DHT22;62328;51.19929245;4.42130175;2022-07-22T00:51:17;17.90;99.90
8780;DHT22;62328;51.19929245;4.42130175;2022-07-22T00:53:45;17.90;99.90
8780;DHT22;62328;51.19929245;4.42130175;2022-07-22T00:56:12;17.90;99.90
8780;DHT22;62328;51.19929245;4.42130175;2022-07-22T00:58:39;17.90;99.90
8780;DHT22;62328;51.19929245;4.42130175;2022-07-22T01:01:06;17.90;99.90
8780;DHT22;62328;51.19929245;4.42130175;2022-07-22T01:03:35;17.90;99.90
8780;DHT22;62328;51.19929245;4.42130175;2022-07-22T01:06:02;17.90;99.90
8780;DHT22;62328;51.19929245;4.42130175;2022-07-22T01:08:29;17.80;99.90
8780;DHT22;62328;51.19929245;4.42130175;2022-07-22T01:11:06;17.80;99.90
8780;DHT22;62328;51.19929245;4.42130175;2022-07-22T01:13:33;17.80;99.90
8780;DHT22;62328;51.19929245;4.42130175;2022-07-22T01:16:00;17.70;99.90
8780;DHT22;62328;51.19929245;4.42130175;2022-07-22T01:18:27;17.70;99.90
8780;DHT22;62328;51.19929245;4.42130175;2022-07-22T01:20:55;17.70;99.90
8780;DHT22;62328;51.19929245;4.42130175;2022-07-22T01:23:22;17.80;99.90
8780;DHT22;62328;51.19929245;4.42130175;2022-07-22T01:25:49;17.80;99.90
8780;DHT22;62328;51.19929245;4.42130175;2022-07-22T01:28:16;17.80;99.90
8780;DHT22;62328;51.19929245;4.42130175;2022-07-22T01:30:43;17.80;99.90
8780;DHT22;62328;51.19929245;4.42130175;2022-07-22T01:33:09;17.80;99.90
8780;DHT22;62328;51.19929245;4.42130175;2022-07-22T01:35:36;17.80;99.90
8780;DHT22;62328;51.19929245;4.42130175;2022-07-22T01:38:06;17.80;99.90
8780;DHT22;62328;51.19929245;4.42130175;2022-07-22T01:40:33;17.70;99.90
8780;DHT22;62328;51.19929245;4.42130175;2022-07-22T01:43:00;17.70;99.90
8780;DHT22;62328;51.19929245;4.42130175;2022-07-22T01:45:27;17.70;99.90
8780;DHT22;62328;51.19929245;4.42130175;2022-07-22T01:47:54;17.80;99.90
8780;DHT22;62328;51.19929245;4.42130175;2022-07-22T01:50:21;17.80;99.90
8780;DHT22;62328;51.19929245;4.42130175;2022-07-22T01:52:48;17.80;99.90
8780;DHT22;62328;51.19929245;4.42130175;2022-07-22T01:55:16;17.80;99.90
8780;DHT22;62328;51.19929245;4.42130175;2022-07-22T01:57:43;17.70;99.90
8780;DHT22;62328;51.19929245;4.42130175;2022-07-22T02:00:11;17.70;99.90
8780;DHT22;62328;51.19929245;4.42130175;2022-07-22T02:02:37;17.80;99.90
8780;DHT22;62328;51.19929245;4.42130175;2022-07-22T02:05:06;17.70;99.90
8780;DHT22;62328;51.19929245;4.42130175;2022-07-22T02:07:33;17.70;99.90
8780;DHT22;62328;51.19929245;4.42130175;2022-07-22T02:09:59;17.70;99.90
8780;DHT22;62328;51.19929245;4.42130175;2022-07-22T02:12:28;17.60;99.90
8780;DHT22;62328;51.19929245;4.42130175;2022-07-22T02:14:55;17.60;99.90
8780;DHT22;62328;51.19929245;4.42130175;2022-07-22T02:17:22;17.50;99.90
8780;DHT22;62328;51.19929245;4.42130175;2022-07-22T02:19:48;17.50;99.90
8780;DHT22;62328;51.19929245;4.42130175;2022-07-22T02:22:15;17.50;99.90
8780;DHT22;62328;51.19929245;4.42130175;2022-07-22T02:24:42;17.40;99.90
8780;DHT22;62328;51.19929245;4.42130175;2022-07-22T02:27:09;17.40;99.90
8780;DHT22;62328;51.19929245;4.42130175;2022-07-22T02:29:38;17.30;99.90
8780;DHT22;62328;51.19929245;4.42130175;2022-07-22T02:32:05;17.30;99.90
8780;DHT22;62328;51.19929245;4.42130175;2022-07-22T02:34:32;17.30;99.90
8780;DHT22;62328;51.19929245;4.42130175;2022-07-22T02:36:59;17.30;99.90
8780;DHT22;62328;51.19929245;4.42130175;2022-07-22T02:39:25;17.20;99.90
8780;DHT22;62328;51.19929245;4.42130175;2022-07-22T02:41:52;17.20;99.90
8780;DHT22;62328;51.19929245;4.42130175;2022-07-22T02:44:19;17.20;99.90
8780;DHT22;62328;51.19929245;4.42130175;2022-07-22T02:46:49;17.10;99.90
8780;DHT22;62328;51.19929245;4.42130175;2022-07-22T02:49:16;17.10;99.90
8780;DHT22;62328;51.19929245;4.42130175;2022-07-22T02:51:43;17.10;99.90
8780;DHT22;62328;51.19929245;4.42130175;2022-07-22T02:54:11;17.10;99.90
8780;DHT22;62328;51.19929245;4.42130175;2022-07-22T02:56:38;17.10;99.90
8780;DHT22;62328;51.19929245;4.42130175;2022-07-22T02:59:05;17.10;99.90
8780;DHT22;62328;51.19929245;4.42130175;2022-07-22T03:01:32;17.10;99.90
8780;DHT22;62328;51.19929245;4.42130175;2022-07-22T03:04:00;17.10;99.90
8780;DHT22;62328;51.19929245;4.42130175;2022-07-22T03:06:27;17.10;99.90
8780;DHT22;62328;51.19929245;4.42130175;2022-07-22T03:08:54;17.00;99.90
8780;DHT22;62328;51.19929245;4.42130175;2022-07-22T03:11:21;17.00;99.90
8780;DHT22;62328;51.19929245;4.42130175;2022-07-22T03:13:48;16.90;99.90
8780;DHT22;62328;51.19929245;4.42130175;2022-07-22T03:16:14;17.00;99.90
8780;DHT22;62328;51.19929245;4.42130175;2022-07-22T03:18:41;17.00;99.90
8780;DHT22;62328;51.19929245;4.42130175;2022-07-22T03:21:09;17.00;99.90
8780;DHT22;62328;51.19929245;4.42130175;2022-07-22T03:23:36;17.00;99.90
8780;DHT22;62328;51.19929245;4.42130175;2022-07-22T03:26:03;17.00;99.90
8780;DHT22;62328;51.19929245;4.42130175;2022-07-22T03:28:30;17.00;99.90
8780;DHT22;62328;51.19929245;4.42130175;2022-07-22T03:30:57;17.00;99.90
8780;DHT22;62328;51.19929245;4.42130175;2022-07-22T03:33:23;17.00;99.90
8780;DHT22;62328;51.19929245;4.42130175;2022-07-22T03:35:50;16.90;99.90
8780;DHT22;62328;51.19929245;4.42130175;2022-07-22T03:38:18;17.00;99.90
8780;DHT22;62328;51.19929245;4.42130175;2022-07-22T03:40:45;16.90;99.90
8780;DHT22;62328;51.19929245;4.42130175;2022-07-22T03:43:12;16.90;99.90
8780;DHT22;62328;51.19929245;4.42130175;2022-07-22T03:45:38;16.90;99.90
8780;DHT22;62328;51.19929245;4.42130175;2022-07-22T03:48:05;16.90;99.90
8780;DHT22;62328;51.19929245;4.42130175;2022-07-22T03:50:32;16.90;99.90
8780;DHT22;62328;51.19929245;4.42130175;2022-07-22T03:52:59;16.90;99.90
8780;DHT22;62328;51.19929245;4.42130175;2022-07-22T03:55:27;16.80;99.90
8780;DHT22;62328;51.19929245;4.42130175;2022-07-22T03:57:53;16.80;99.90
8780;DHT22;62328;51.19929245;4.42130175;2022-07-22T04:00:20;16.80;99.90
8780;DHT22;62328;51.19929245;4.42130175;2022-07-22T04:02:47;16.90;99.90
8780;DHT22;62328;51.19929245;4.42130175;2022-07-22T04:05:14;16.80;99.90
8780;DHT22;62328;51.19929245;4.42130175;2022-07-22T04:07:40;16.80;99.90
8780;DHT22;62328;51.19929245;4.42130175;2022-07-22T04:10:08;16.80;99.90
8780;DHT22;62328;51.19929245;4.42130175;2022-07-22T04:12:38;16.70;99.90
8780;DHT22;62328;51.19929245;4.42130175;2022-07-22T04:15:07;16.70;99.90
8780;DHT22;62328;51.19929245;4.42130175;2022-07-22T04:17:35;16.70;99.90
8780;DHT22;62328;51.19929245;4.42130175;2022-07-22T04:20:02;16.70;99.90
8780;DHT22;62328;51.19929245;4.42130175;2022-07-22T04:22:29;16.70;99.90
8780;DHT22;62328;51.19929245;4.42130175;2022-07-22T04:24:56;16.70;99.90
8780;DHT22;62328;51.19929245;4.42130175;2022-07-22T04:27:23;16.70;99.90
8780;DHT22;62328;51.19929245;4.42130175;2022-07-22T04:29:51;16.70;99.90
8780;DHT22;62328;51.19929245;4.42130175;2022-07-22T04:32:18;16.70;99.90
8780;DHT22;62328;51.19929245;4.42130175;2022-07-22T04:34:45;16.70;99.90
8780;DHT22;62328;51.19929245;4.42130175;2022-07-22T04:37:12;16.70;99.90
8780;DHT22;62328;51.19929245;4.42130175;2022-07-22T04:39:38;16.70;99.90
8780;DHT22;62328;51.19929245;4.42130175;2022-07-22T04:42:06;16.70;99.90
8780;DHT22;62328;51.19929245;4.42130175;2022-07-22T04:44:32;16.70;99.90
8780;DHT22;62328;51.19929245;4.42130175;2022-07-22T04:47:01;16.80;99.90
8780;DHT22;62328;51.19929245;4.42130175;2022-07-22T04:49:27;16.70;99.90
8780;DHT22;62328;51.19929245;4.42130175;2022-07-22T04:51:54;16.70;99.90
8780;DHT22;62328;51.19929245;4.42130175;2022-07-22T04:54:21;16.90;99.90
8780;DHT22;62328;51.19929245;4.42130175;2022-07-22T04:56:48;16.80;99.90
8780;DHT22;62328;51.19929245;4.42130175;2022-07-22T04:59:15;16.80;99.90
8780;DHT22;62328;51.19929245;4.42130175;2022-07-22T05:01:42;16.80;99.90
8780;DHT22;62328;51.19929245;4.42130175;2022-07-22T05:04:10;16.80;99.90
8780;DHT22;62328;51.19929245;4.42130175;2022-07-22T05:06:37;16.90;99.90
8780;DHT22;62328;51.19929245;4.42130175;2022-07-22T05:09:04;16.80;99.90
8780;DHT22;62328;51.19929245;4.42130175;2022-07-22T05:11:31;16.90;99.90
8780;DHT22;62328;51.19929245;4.42130175;2022-07-22T05:13:58;16.90;99.90
8780;DHT22;62328;51.19929245;4.42130175;2022-07-22T05:16:25;17.00;99.90
8780;DHT22;62328;51.19929245;4.42130175;2022-07-22T05:18:52;17.00;99.90
8780;DHT22;62328;51.19929245;4.42130175;2022-07-22T05:21:20;17.00;99.90
8780;DHT22;62328;51.19929245;4.42130175;2022-07-22T05:23:47;17.00;99.90
8780;DHT22;62328;51.19929245;4.42130175;2022-07-22T05:26:14;17.10;99.90
8780;DHT22;62328;51.19929245;4.42130175;2022-07-22T05:28:41;17.10;99.90
8780;DHT22;62328;51.19929245;4.42130175;2022-07-22T05:31:08;17.10;99.90
8780;DHT22;62328;51.19929245;4.42130175;2022-07-22T05:33:35;17.20;99.90
8780;DHT22;62328;51.19929245;4.42130175;2022-07-22T05:36:02;17.20;99.90
8780;DHT22;62328;51.19929245;4.42130175;2022-07-22T05:38:33;17.30;99.90
8780;DHT22;62328;51.19929245;4.42130175;2022-07-22T05:41:00;17.30;99.90
8780;DHT22;62328;51.19929245;4.42130175;2022-07-22T05:43:28;17.30;99.90
8780;DHT22;62328;51.19929245;4.42130175;2022-07-22T05:45:55;17.30;99.90
8780;DHT22;62328;51.19929245;4.42130175;2022-07-22T05:48:22;17.40;99.90
8780;DHT22;62328;51.19929245;4.42130175;2022-07-22T05:50:49;17.40;99.90
8780;DHT22;62328;51.19929245;4.42130175;2022-07-22T05:53:16;17.40;99.90
8780;DHT22;62328;51.19929245;4.42130175;2022-07-22T05:55:44;17.40;99.90
8780;DHT22;62328;51.19929245;4.42130175;2022-07-22T05:58:11;17.50;99.90
8780;DHT22;62328;51.19929245;4.42130175;2022-07-22T06:00:38;17.50;99.90
8780;DHT22;62328;51.19929245;4.42130175;2022-07-22T06:03:05;17.50;99.90
8780;DHT22;62328;51.19929245;4.42130175;2022-07-22T06:05:32;17.50;99.90
8780;DHT22;62328;51.19929245;4.42130175;2022-07-22T06:08:01;17.50;99.90
8780;DHT22;62328;51.19929245;4.42130175;2022-07-22T06:10:28;17.60;99.90
8780;DHT22;62328;51.19929245;4.42130175;2022-07-22T06:12:56;17.60;99.90
8780;DHT22;62328;51.19929245;4.42130175;2022-07-22T06:15:23;17.70;99.90
8780;DHT22;62328;51.19929245;4.42130175;2022-07-22T06:17:50;17.70;99.90
8780;DHT22;62328;51.19929245;4.42130175;2022-07-22T06:20:17;17.70;99.90
8780;DHT22;62328;51.19929245;4.42130175;2022-07-22T06:22:43;17.80;99.90
8780;DHT22;62328;51.19929245;4.42130175;2022-07-22T06:25:10;17.80;99.90
8780;DHT22;62328;51.19929245;4.42130175;2022-07-22T06:27:38;17.90;99.90
8780;DHT22;62328;51.19929245;4.42130175;2022-07-22T06:30:07;17.90;99.90
8780;DHT22;62328;51.19929245;4.42130175;2022-07-22T06:32:34;17.90;99.90
8780;DHT22;62328;51.19929245;4.42130175;2022-07-22T06:35:02;17.90;99.90
8780;DHT22;62328;51.19929245;4.42130175;2022-07-22T06:37:29;18.00;99.90
8780;DHT22;62328;51.19929245;4.42130175;2022-07-22T06:39:56;18.00;99.90
8780;DHT22;62328;51.19929245;4.42130175;2022-07-22T06:42:23;18.00;99.90
8780;DHT22;62328;51.19929245;4.42130175;2022-07-22T06:44:51;18.10;99.90
8780;DHT22;62328;51.19929245;4.42130175;2022-07-22T06:47:19;18.20;99.90
8780;DHT22;62328;51.19929245;4.42130175;2022-07-22T06:49:46;18.20;99.90
8780;DHT22;62328;51.19929245;4.42130175;2022-07-22T06:52:12;18.30;99.90
8780;DHT22;62328;51.19929245;4.42130175;2022-07-22T06:54:39;18.30;99.90
8780;DHT22;62328;51.19929245;4.42130175;2022-07-22T06:57:06;18.40;99.90
8780;DHT22;62328;51.19929245;4.42130175;2022-07-22T06:59:34;18.40;99.90
8780;DHT22;62328;51.19929245;4.42130175;2022-07-22T07:02:01;18.50;99.90
8780;DHT22;62328;51.19929245;4.42130175;2022-07-22T07:04:29;18.50;99.90
8780;DHT22;62328;51.19929245;4.42130175;2022-07-22T07:06:56;18.60;99.90
8780;DHT22;62328;51.19929245;4.42130175;2022-07-22T07:09:23;18.60;99.90
8780;DHT22;62328;51.19929245;4.42130175;2022-07-22T07:11:51;18.70;99.90
8780;DHT22;62328;51.19929245;4.42130175;2022-07-22T07:14:18;18.70;99.90
8780;DHT22;62328;51.19929245;4.42130175;2022-07-22T07:16:44;18.80;99.90
8780;DHT22;62328;51.19929245;4.42130175;2022-07-22T07:19:11;18.80;99.90
8780;DHT22;62328;51.19929245;4.42130175;2022-07-22T07:21:40;18.90;99.90
8780;DHT22;62328;51.19929245;4.42130175;2022-07-22T07:24:06;19.00;99.90
8780;DHT22;62328;51.19929245;4.42130175;2022-07-22T07:26:33;19.00;99.90
8780;DHT22;62328;51.19929245;4.42130175;2022-07-22T07:29:00;19.00;99.90
8780;DHT22;62328;51.19929245;4.42130175;2022-07-22T07:31:27;19.10;99.90
8780;DHT22;62328;51.19929245;4.42130175;2022-07-22T07:33:54;19.20;99.90
8780;DHT22;62328;51.19929245;4.42130175;2022-07-22T07:36:21;19.20;99.90
8780;DHT22;62328;51.19929245;4.42130175;2022-07-22T07:38:50;19.20;99.90
8780;DHT22;62328;51.19929245;4.42130175;2022-07-22T07:41:17;19.30;99.90
8780;DHT22;62328;51.19929245;4.42130175;2022-07-22T07:43:44;19.30;99.90
8780;DHT22;62328;51.19929245;4.42130175;2022-07-22T07:46:11;19.50;99.90
8780;DHT22;62328;51.19929245;4.42130175;2022-07-22T07:48:38;19.50;99.90
8780;DHT22;62328;51.19929245;4.42130175;2022-07-22T07:51:05;19.60;99.90
8780;DHT22;62328;51.19929245;4.42130175;2022-07-22T07:53:33;19.60;99.90
8780;DHT22;62328;51.19929245;4.42130175;2022-07-22T07:56:02;19.70;99.90
8780;DHT22;62328;51.19929245;4.42130175;2022-07-22T07:58:39;19.80;99.90
8780;DHT22;62328;51.19929245;4.42130175;2022-07-22T08:01:06;19.90;99.90
8780;DHT22;62328;51.19929245;4.42130175;2022-07-22T08:03:33;19.90;99.90
8780;DHT22;62328;51.19929245;4.42130175;2022-07-22T08:06:00;19.90;99.90
8780;DHT22;62328;51.19929245;4.42130175;2022-07-22T08:08:27;20.00;99.90
8780;DHT22;62328;51.19929245;4.42130175;2022-07-22T08:10:54;20.00;99.90
8780;DHT22;62328;51.19929245;4.42130175;2022-07-22T08:13:22;20.00;99.90
8780;DHT22;62328;51.19929245;4.42130175;2022-07-22T08:15:49;20.00;99.90
8780;DHT22;62328;51.19929245;4.42130175;2022-07-22T08:18:16;20.10;99.90
8780;DHT22;62328;51.19929245;4.42130175;2022-07-22T08:20:43;20.10;99.90
8780;DHT22;62328;51.19929245;4.42130175;2022-07-22T08:23:10;20.10;99.90
8780;DHT22;62328;51.19929245;4.42130175;2022-07-22T08:25:38;20.10;99.90
8780;DHT22;62328;51.19929245;4.42130175;2022-07-22T08:28:05;20.10;99.90
8780;DHT22;62328;51.19929245;4.42130175;2022-07-22T08:30:33;20.20;99.90
8780;DHT22;62328;51.19929245;4.42130175;2022-07-22T08:33:00;20.20;99.90
8780;DHT22;62328;51.19929245;4.42130175;2022-07-22T08:35:27;20.20;99.90
8780;DHT22;62328;51.19929245;4.42130175;2022-07-22T08:37:54;20.30;99.90
8780;DHT22;62328;51.19929245;4.42130175;2022-07-22T08:40:21;20.40;99.90
8780;DHT22;62328;51.19929245;4.42130175;2022-07-22T08:42:49;20.40;99.90
8780;DHT22;62328;51.19929245;4.42130175;2022-07-22T08:45:18;20.40;99.90
8780;DHT22;62328;51.19929245;4.42130175;2022-07-22T08:47:48;20.40;99.90
8780;DHT22;62328;51.19929245;4.42130175;2022-07-22T08:50:15;20.50;99.90
8780;DHT22;62328;51.19929245;4.42130175;2022-07-22T08:52:42;20.60;99.90
8780;DHT22;62328;51.19929245;4.42130175;2022-07-22T08:55:10;20.60;99.90
8780;DHT22;62328;51.19929245;4.42130175;2022-07-22T08:57:37;20.70;99.90
8780;DHT22;62328;51.19929245;4.42130175;2022-07-22T09:00:10;20.80;99.90
8780;DHT22;62328;51.19929245;4.42130175;2022-07-22T09:02:38;20.90;99.90
8780;DHT22;62328;51.19929245;4.42130175;2022-07-22T09:05:08;21.00;99.90
8780;DHT22;62328;51.19929245;4.42130175;2022-07-22T09:07:37;21.10;99.90
8780;DHT22;62328;51.19929245;4.42130175;2022-07-22T09:10:05;21.20;99.90
8780;DHT22;62328;51.19929245;4.42130175;2022-07-22T09:12:33;21.30;99.90
8780;DHT22;62328;51.19929245;4.42130175;2022-07-22T09:15:02;21.40;99.90
8780;DHT22;62328;51.19929245;4.42130175;2022-07-22T09:17:32;21.40;99.90
8780;DHT22;62328;51.19929245;4.42130175;2022-07-22T09:20:03;21.50;99.90
8780;DHT22;62328;51.19929245;4.42130175;2022-07-22T09:22:34;21.60;99.90
8780;DHT22;62328;51.19929245;4.42130175;2022-07-22T09:25:18;21.70;99.90
8780;DHT22;62328;51.19929245;4.42130175;2022-07-22T09:27:45;21.80;99.90
8780;DHT22;62328;51.19929245;4.42130175;2022-07-22T09:32:41;21.70;99.90
8780;DHT22;62328;51.19929245;4.42130175;2022-07-22T09:35:09;21.70;99.90
8780;DHT22;62328;51.19929245;4.42130175;2022-07-22T09:37:37;21.60;99.90
8780;DHT22;62328;51.19929245;4.42130175;2022-07-22T09:40:14;21.60;99.90
8780;DHT22;62328;51.19929245;4.42130175;2022-07-22T09:42:47;21.60;99.90
8780;DHT22;62328;51.19929245;4.42130175;2022-07-22T09:45:14;21.60;99.90
8780;DHT22;62328;51.19929245;4.42130175;2022-07-22T09:47:41;21.60;99.90
8780;DHT22;62328;51.19929245;4.42130175;2022-07-22T09:50:17;21.70;99.90
8780;DHT22;62328;51.19929245;4.42130175;2022-07-22T09:52:46;21.80;99.90
8780;DHT22;62328;51.19929245;4.42130175;2022-07-22T09:55:14;21.80;99.90
8780;DHT22;62328;51.19929245;4.42130175;2022-07-22T09:57:42;21.80;99.90
8780;DHT22;62328;51.19929245;4.42130175;2022-07-22T10:00:09;21.70;99.90
8780;DHT22;62328;51.19929245;4.42130175;2022-07-22T10:02:41;21.70;99.90
8780;DHT22;62328;51.19929245;4.42130175;2022-07-22T10:05:11;21.70;99.90
8780;DHT22;62328;51.19929245;4.42130175;2022-07-22T10:07:39;21.60;99.90
8780;DHT22;62328;51.19929245;4.42130175;2022-07-22T10:10:09;21.60;99.90
8780;DHT22;62328;51.19929245;4.42130175;2022-07-22T10:12:37;21.60;99.90
8780;DHT22;62328;51.19929245;4.42130175;2022-07-22T10:15:06;21.70;99.90
8780;DHT22;62328;51.19929245;4.42130175;2022-07-22T10:17:34;21.70;99.90
8780;DHT22;62328;51.19929245;4.42130175;2022-07-22T10:20:03;21.60;99.90
8780;DHT22;62328;51.19929245;4.42130175;2022-07-22T10:22:51;21.60;99.90
8780;DHT22;62328;51.19929245;4.42130175;2022-07-22T10:25:20;21.60;99.90
8780;DHT22;62328;51.19929245;4.42130175;2022-07-22T10:27:52;21.60;99.90
8780;DHT22;62328;51.19929245;4.42130175;2022-07-22T10:30:20;21.70;99.90
8780;DHT22;62328;51.19929245;4.42130175;2022-07-22T10:33:03;21.70;99.90
8780;DHT22;62328;51.19929245;4.42130175;2022-07-22T10:35:32;21.80;99.90
8780;DHT22;62328;51.19929245;4.42130175;2022-07-22T10:38:01;21.90;99.90
8780;DHT22;62328;51.19929245;4.42130175;2022-07-22T10:40:30;21.90;99.90
8780;DHT22;62328;51.19929245;4.42130175;2022-07-22T10:43:05;22.00;99.90
8780;DHT22;62328;51.19929245;4.42130175;2022-07-22T10:45:35;22.10;99.90
8780;DHT22;62328;51.19929245;4.42130175;2022-07-22T10:48:04;22.20;99.90
8780;DHT22;62328;51.19929245;4.42130175;2022-07-22T10:50:45;22.20;99.90
8780;DHT22;62328;51.19929245;4.42130175;2022-07-22T10:53:14;22.20;99.90
8780;DHT22;62328;51.19929245;4.42130175;2022-07-22T10:55:59;22.30;99.90
8780;DHT22;62328;51.19929245;4.42130175;2022-07-22T10:58:41;22.40;99.90
8780;DHT22;62328;51.19929245;4.42130175;2022-07-22T11:01:10;22.40;99.90
8780;DHT22;62328;51.19929245;4.42130175;2022-07-22T11:03:40;22.40;99.90
8780;DHT22;62328;51.19929245;4.42130175;2022-07-22T11:06:19;22.60;99.90
8780;DHT22;62328;51.19929245;4.42130175;2022-07-22T11:08:49;22.50;99.90
8780;DHT22;62328;51.19929245;4.42130175;2022-07-22T11:11:17;22.60;99.90
8780;DHT22;62328;51.19929245;4.42130175;2022-07-22T11:13:45;22.70;99.90
8780;DHT22;62328;51.19929245;4.42130175;2022-07-22T11:16:18;22.80;99.90
8780;DHT22;62328;51.19929245;4.42130175;2022-07-22T11:18:47;22.80;99.90
8780;DHT22;62328;51.19929245;4.42130175;2022-07-22T11:21:15;22.80;99.90
8780;DHT22;62328;51.19929245;4.42130175;2022-07-22T11:23:43;22.80;99.90
8780;DHT22;62328;51.19929245;4.42130175;2022-07-22T11:26:13;22.90;99.90
8780;DHT22;62328;51.19929245;4.42130175;2022-07-22T11:28:43;22.90;99.90
8780;DHT22;62328;51.19929245;4.42130175;2022-07-22T11:31:15;22.80;99.90
8780;DHT22;62328;51.19929245;4.42130175;2022-07-22T11:33:42;22.90;99.90
8780;DHT22;62328;51.19929245;4.42130175;2022-07-22T11:36:11;22.90;99.90
8780;DHT22;62328;51.19929245;4.42130175;2022-07-22T11:38:46;23.00;99.90
8780;DHT22;62328;51.19929245;4.42130175;2022-07-22T11:41:14;23.00;99.90
8780;DHT22;62328;51.19929245;4.42130175;2022-07-22T11:43:46;23.10;99.90
8780;DHT22;62328;51.19929245;4.42130175;2022-07-22T11:46:14;23.20;99.90
8780;DHT22;62328;51.19929245;4.42130175;2022-07-22T11:48:42;23.30;99.90
8780;DHT22;62328;51.19929245;4.42130175;2022-07-22T11:51:10;23.30;99.90
8780;DHT22;62328;51.19929245;4.42130175;2022-07-22T11:53:38;23.20;99.90
8780;DHT22;62328;51.19929245;4.42130175;2022-07-22T11:56:06;23.20;99.90
8780;DHT22;62328;51.19929245;4.42130175;2022-07-22T11:58:35;23.20;99.90
8780;DHT22;62328;51.19929245;4.42130175;2022-07-22T12:01:03;23.30;99.90
8780;DHT22;62328;51.19929245;4.42130175;2022-07-22T12:03:31;23.50;99.90
8780;DHT22;62328;51.19929245;4.42130175;2022-07-22T12:05:58;23.40;99.90
8780;DHT22;62328;51.19929245;4.42130175;2022-07-22T12:08:26;23.40;99.90
8780;DHT22;62328;51.19929245;4.42130175;2022-07-22T12:10:55;23.40;99.90
8780;DHT22;62328;51.19929245;4.42130175;2022-07-22T12:13:27;23.50;99.90
8780;DHT22;62328;51.19929245;4.42130175;2022-07-22T12:15:54;23.50;99.90
8780;DHT22;62328;51.19929245;4.42130175;2022-07-22T12:18:24;23.50;99.90
8780;DHT22;62328;51.19929245;4.42130175;2022-07-22T12:20:51;23.50;99.90
8780;DHT22;62328;51.19929245;4.42130175;2022-07-22T12:23:19;23.50;99.90
8780;DHT22;62328;51.19929245;4.42130175;2022-07-22T12:25:54;23.50;99.90
8780;DHT22;62328;51.19929245;4.42130175;2022-07-22T12:28:21;23.50;99.90
8780;DHT22;62328;51.19929245;4.42130175;2022-07-22T12:30:48;23.40;99.90
8780;DHT22;62328;51.19929245;4.42130175;2022-07-22T12:33:17;23.50;99.90
8780;DHT22;62328;51.19929245;4.42130175;2022-07-22T12:35:58;23.50;99.90
8780;DHT22;62328;51.19929245;4.42130175;2022-07-22T12:38:25;23.50;99.90
8780;DHT22;62328;51.19929245;4.42130175;2022-07-22T12:40:52;23.60;99.90
8780;DHT22;62328;51.19929245;4.42130175;2022-07-22T12:43:24;23.70;99.90
8780;DHT22;62328;51.19929245;4.42130175;2022-07-22T12:45:51;23.60;99.90
8780;DHT22;62328;51.19929245;4.42130175;2022-07-22T12:48:18;23.70;99.90
8780;DHT22;62328;51.19929245;4.42130175;2022-07-22T12:50:56;23.70;99.90
8780;DHT22;62328;51.19929245;4.42130175;2022-07-22T12:53:23;23.70;99.90
8780;DHT22;62328;51.19929245;4.42130175;2022-07-22T12:55:52;23.60;99.90
8780;DHT22;62328;51.19929245;4.42130175;2022-07-22T12:58:21;23.60;99.90
8780;DHT22;62328;51.19929245;4.42130175;2022-07-22T13:00:50;23.60;99.90
8780;DHT22;62328;51.19929245;4.42130175;2022-07-22T13:03:17;23.60;99.90
8780;DHT22;62328;51.19929245;4.42130175;2022-07-22T13:05:46;23.60;99.90
8780;DHT22;62328;51.19929245;4.42130175;2022-07-22T13:08:14;23.60;99.90
8780;DHT22;62328;51.19929245;4.42130175;2022-07-22T13:10:41;23.70;99.90
8780;DHT22;62328;51.19929245;4.42130175;2022-07-22T13:13:08;23.70;99.90
8780;DHT22;62328;51.19929245;4.42130175;2022-07-22T13:15:35;23.80;99.90
8780;DHT22;62328;51.19929245;4.42130175;2022-07-22T13:18:03;23.80;99.90
8780;DHT22;62328;51.19929245;4.42130175;2022-07-22T13:20:30;23.90;99.90
8780;DHT22;62328;51.19929245;4.42130175;2022-07-22T13:22:57;24.00;99.90
8780;DHT22;62328;51.19929245;4.42130175;2022-07-22T13:25:25;24.00;99.90
8780;DHT22;62328;51.19929245;4.42130175;2022-07-22T13:27:52;24.00;99.90
8780;DHT22;62328;51.19929245;4.42130175;2022-07-22T13:30:19;23.90;99.90
8780;DHT22;62328;51.19929245;4.42130175;2022-07-22T13:32:46;23.90;99.90
8780;DHT22;62328;51.19929245;4.42130175;2022-07-22T13:35:13;23.90;99.90
8780;DHT22;62328;51.19929245;4.42130175;2022-07-22T13:37:40;23.80;99.90
8780;DHT22;62328;51.19929245;4.42130175;2022-07-22T13:40:08;23.80;99.90
8780;DHT22;62328;51.19929245;4.42130175;2022-07-22T13:42:36;23.70;99.90